Погода Тшижечена 2 недели

Подляское воеводство, Польша

18 - 31 июля
  • 18июля
    Сегодня
    +13°
    +26°
    Небольшая облачность
    ВремяПогодаТемператураВлажностьДавлениеВетер, м/сВероятность осадков
    02:00Облачно с прояснениями+18°C72 %749 мм2.2 м/с2 %
    05:00Ясно и безоблачно+16°C81 %749 мм1.7 м/с15 %
    08:00Ясно и безоблачно+21°C73 %750 мм2.6 м/с4 %
    11:00Практически безоблачно+24°C50 %750 мм4.2 м/с12 %
    14:00Небольшая облачность+26°C42 %750 мм4.8 м/с8 %
    17:00Небольшая облачность+25°C43 %749 мм5.0 м/с3 %
    20:00Ясно и безоблачно+23°C55 %750 мм3.2 м/с2 %
    23:00Облачно с прояснениями+17°C70 %750 мм2.7 м/с2 %
  • 19июля
    Пятница
    +12°
    +25°
    Ясно и безоблачно
    ВремяПогодаТемператураВлажностьДавлениеВетер, м/сВероятность осадков
    02:00Ясно и безоблачно+15°C84 %751 мм2.5 м/с2 %
    05:00Ясно и безоблачно+13°C93 %751 мм2.0 м/с2 %
    08:00Ясно и безоблачно+18°C74 %750 мм2.7 м/с2 %
    11:00Практически безоблачно+22°C56 %750 мм3.3 м/с2 %
    14:00Ясно и безоблачно+24°C47 %749 мм3.8 м/с2 %
    17:00Ясно и безоблачно+24°C45 %749 мм3.9 м/с2 %
    20:00Ясно и безоблачно+22°C54 %748 мм3.0 м/с2 %
    23:00Ясно и безоблачно+15°C70 %748 мм1.8 м/с2 %
  • 20июля
    Суббота
    +13°
    +25°
    Ясно и безоблачно
    ВремяПогодаТемператураВлажностьДавлениеВетер, м/сВероятность осадков
    02:00Ясно и безоблачно+14°C85 %747 мм1.8 м/с2 %
    05:00Ясно и безоблачно+12°C94 %747 мм1.8 м/с2 %
    08:00Практически безоблачно+17°C77 %747 мм2.0 м/с2 %
    11:00Ясно и безоблачно+22°C56 %746 мм2.0 м/с2 %
    14:00Ясно и безоблачно+24°C45 %745 мм2.5 м/с2 %
    17:00Небольшая облачность+25°C41 %745 мм2.5 м/с2 %
    20:00Практически безоблачно+23°C62 %744 мм1.0 м/с2 %
    23:00Ясно и безоблачно+18°C63 %744 мм2.5 м/с2 %
  • 21июля
    Воскресенье
    +14°
    +28°
    Небольшая облачность
    ВремяПогодаТемператураВлажностьДавлениеВетер, м/сВероятность осадков
    02:00Ясно и безоблачно+16°C81 %744 мм1.8 м/с2 %
    05:00Ясно и безоблачно+14°C93 %743 мм1.5 м/с2 %
    08:00Ясно и безоблачно+20°C69 %743 мм0.6 м/с2 %
    11:00Практически безоблачно+24°C47 %743 мм1.7 м/с2 %
    14:00Небольшая облачность+27°C38 %743 мм1.7 м/с3 %
    17:00Небольшая облачность+27°C37 %742 мм2.3 м/с2 %
    20:00Ясно и безоблачно+24°C43 %742 мм2.8 м/с2 %
    23:00Практически безоблачно+18°C55 %742 мм1.9 м/с2 %
  • 22июля
    Понедельник
    +14°
    +28°
    Ясно и безоблачно
    ВремяПогодаТемператураВлажностьДавлениеВетер, м/сВероятность осадков
    02:00Ясно и безоблачно+16°C68 %742 мм1.8 м/с2 %
    05:00Ясно и безоблачно+15°C77 %742 мм2.1 м/с2 %
    08:00Ясно и безоблачно+21°C60 %742 мм2.0 м/с2 %
    11:00Ясно и безоблачно+27°C41 %743 мм1.2 м/с4 %
    14:00Ясно и безоблачно+28°C35 %742 мм2.4 м/с13 %
    17:00Практически безоблачно+26°C33 %742 мм1.9 м/с14 %
    20:00Ясно и безоблачно+24°C49 %742 мм1.5 м/с18 %
    23:00Ясно и безоблачно+19°C54 %743 мм3.2 м/с21 %
Мы используем cookies
Соглашаюсь